1997 HELINDA:PANCHO:PANCHO_HELIN (1997013S08101)


On this page: IBTrACS data - Map and Plots - Positions - Intensities - Original source data

Summary

Start Jan 13
End Feb 14
Basin SI
LMI 125 kt
Sources jtwc_sh
bom
reunion
neumann
In WMO? Yes
Previous storm 1997 HANNAH (WP)
Previous in basin 1997 HSK1897 (SI)
Concurrent storms 1997 PHIL (SP)
1997 DRENA (SP)
1997 HSK1897 (SI)
1997 EVAN (SP)
1997 HANNAH (WP)
1997 HELINDA (SI)
1997 ILETTA (SI)
1997 GRETELLE (SI)
1997 FREDA (SP)
1997 ILETTA (SI)
1997 JOSIE (SI)
1997 GILLIAN (SP)
1997 KARLETTE (SI)
1997 HAROLD (SP)
Next in basin 1997 ILETTA (SI)
Next storm 1997 ILETTA (SI)

top of page IBTrACS Data: File Access

top of page HURSAT Data: File Access

Image of storm

top of page Plots:

Map of storm track will not appear if FTP is down
Time series of cyclone Maximum Sustained Wind will not appear if FTP is down
Time series of cyclone Minimum Central Pressure will not appear if FTP is down

top of page Track Data:Position

jtwc_sh bom reunion neumann
Date Lat Lon Lat Lon Lat Lon Lat Lon
1997-01-13 06:00:00 -8.3 100.5 -8.3 100.5
1997-01-13 12:00:00 -8.5 100.2 -8.5 100.2
1997-01-13 18:00:00 -8.8 99.9 -8.8 99.9
1997-01-14 00:00:00 -9.1 99.7 -9.1 99.7
1997-01-14 06:00:00 -9.4 99.5 -9.4 99.5
1997-01-14 12:00:00 -9.8 99.2 -9.8 99.2
1997-01-14 18:00:00 -10.2 98.8 -10.2 98.8
1997-01-15 00:00:00 -10.5 98.2 -10.5 98.2
1997-01-15 06:00:00 -10.8 97.8 -10.8 97.8
1997-01-15 12:00:00 -11.2 97.7 -11.2 97.7
1997-01-15 18:00:00 -11.5 97.8 -11.5 97.8
1997-01-16 00:00:00 -11.7 98.1 -11.7 98.1
1997-01-16 06:00:00 -11.7 98.3 -11.7 98.3
1997-01-16 12:00:00 -11.5 98.4 -11.5 98.4
1997-01-16 18:00:00 -11.2 98.4 -11.2 98.4
1997-01-17 00:00:00 -10.9 98.2 -10.9 98.2
1997-01-17 06:00:00 -10.7 97.9 -10.7 97.9
1997-01-17 12:00:00 -10.5 97.6 -10.5 97.6
1997-01-17 18:00:00 -10.4 97.3 -10.4 97.3
1997-01-18 00:00:00 -10.3 97.1 -10.3 97.1
1997-01-18 06:00:00 -10.1 96.9 -9.6 96.3 -10.1 96.9
1997-01-18 12:00:00 -9.9 96.7 -9.4 95.9 -9.9 96.7
1997-01-18 18:00:00 -9.7 96.5 -9.3 95.6 -9.7 96.5
1997-01-19 00:00:00 -9.5 96.4 -9.2 95.5 -9.5 96.4
1997-01-19 06:00:00 -9.3 96.3 -9.3 95.6 -9.3 96.3
jtwc_sh bom reunion neumann
1997-01-19 12:00:00 -9.1 96.2 -9.5 95.9 -9.1 96.2
1997-01-19 18:00:00 -9.2 96.0 -9.6 96.0 -9.2 96.0
1997-01-20 00:00:00 -9.4 96.0 -9.8 96.2 -9.4 96.0
1997-01-20 06:00:00 -9.7 96.0 -10.0 96.3 -9.7 96.0
1997-01-20 12:00:00 -10.2 96.1 -10.4 96.3 -10.2 96.1
1997-01-20 18:00:00 -10.9 96.2 -11.0 96.0 -10.9 96.2
1997-01-21 00:00:00 -11.6 95.8 -11.4 95.5 -11.6 95.8
1997-01-21 06:00:00 -12.0 94.8 -11.8 94.9 -12.0 94.8
1997-01-21 12:00:00 -12.2 93.9 -12.3 94.2 -12.2 93.9
1997-01-21 18:00:00 -12.4 92.8 -12.7 93.3 -12.4 92.8
1997-01-22 00:00:00 -12.7 91.7 -12.9 92.3 -12.7 91.7
1997-01-22 06:00:00 -13.0 91.0 -13.1 91.4 -13.0 91.7 -13.0 91.0
1997-01-22 12:00:00 -13.1 90.5 -13.2 90.8 -13.2 91.1 -13.1 90.5
1997-01-22 18:00:00 -13.2 90.2 -13.2 90.4 -13.3 90.5 -13.2 90.2
1997-01-23 00:00:00 -13.3 90.0 -13.3 90.0 -13.3 90.2 -13.3 90.0
1997-01-23 06:00:00 -13.4 89.8 -13.4 89.7 -13.4 90.0 -13.4 89.8
1997-01-23 12:00:00 -13.5 89.7 -13.6 89.8 -13.4 89.9 -13.5 89.7
1997-01-23 18:00:00 -13.6 89.7 -13.8 90.0 -13.6 89.9 -13.6 89.7
1997-01-24 00:00:00 -13.8 89.8 -14.1 90.2 -13.9 90.0 -13.8 89.8
1997-01-24 06:00:00 -13.9 90.1 -14.1 90.2 -14.1 90.0 -13.9 90.1
1997-01-24 12:00:00 -13.9 90.3 -14.1 90.2 -14.2 90.1 -13.9 90.3
1997-01-24 18:00:00 -14.0 90.5 -14.2 90.3 -14.3 90.2 -14.0 90.5
1997-01-25 00:00:00 -14.1 90.7 -14.3 90.4 -14.4 90.3 -14.1 90.7
1997-01-25 06:00:00 -14.2 90.8 -14.4 90.5 -14.4 90.4 -14.2 90.8
jtwc_sh bom reunion neumann
1997-01-25 12:00:00 -14.3 90.8 -14.5 90.6 -14.5 90.5 -14.3 90.8
1997-01-25 18:00:00 -14.4 90.7 -14.6 90.6 -14.5 90.6 -14.4 90.7
1997-01-26 00:00:00 -14.4 90.6 -14.7 90.7 -14.5 90.7 -14.4 90.6
1997-01-26 06:00:00 -14.4 90.4 -14.5 90.5 -14.5 90.8 -14.4 90.4
1997-01-26 12:00:00 -14.2 90.3 -14.0 90.6 -14.3 90.8 -14.2 90.3
1997-01-26 18:00:00 -13.8 90.3 -13.6 90.6 -13.8 90.9 -13.8 90.3
1997-01-27 00:00:00 -13.3 90.5 -13.2 90.6 -13.2 91.0 -13.3 90.5
1997-01-27 06:00:00 -12.8 90.8 -12.7 90.6 -12.7 91.0 -12.8 90.8
1997-01-27 12:00:00 -12.2 91.0 -11.7 91.0 -12.1 91.0 -12.2 91.0
1997-01-27 18:00:00 -11.6 91.2 -10.9 91.2 -11.4 90.9 -11.6 91.2
1997-01-28 00:00:00 -10.8 91.3 -10.2 91.4 -10.8 91.2 -10.8 91.3
1997-01-28 06:00:00 -10.0 91.6 -10.0 91.5 -10.2 91.7 -10.0 91.6
1997-01-28 12:00:00 -9.7 92.2 -10.0 91.7 -10.0 92.2 -9.7 92.2
1997-01-28 18:00:00 -9.9 92.9 -10.1 92.0 -10.0 92.8 -9.9 92.9
1997-01-29 00:00:00 -10.4 93.2 -10.5 92.6 -10.5 93.1 -10.4 93.2
1997-01-29 06:00:00 -11.0 93.3 -11.3 93.0 -11.1 93.1 -11.0 93.3
1997-01-29 12:00:00 -11.8 93.3 -12.1 93.1 -11.8 93.0 -11.8 93.3
1997-01-29 18:00:00 -12.9 93.1 -12.8 92.8 -12.6 92.8 -12.9 93.1
1997-01-30 00:00:00 -13.6 92.6 -13.6 92.5 -13.3 92.4 -13.6 92.6
1997-01-30 06:00:00 -14.0 91.9 -14.2 91.8 -13.9 91.8 -14.0 91.9
1997-01-30 12:00:00 -14.5 91.0 -14.5 90.9 -14.5 91.1 -14.5 91.0
1997-01-30 18:00:00 -14.8 90.3 -14.8 90.1 -14.9 90.3 -14.8 90.3
1997-01-31 00:00:00 -15.0 89.5 -15.1 89.3 -15.3 89.5 -15.0 89.5
1997-01-31 06:00:00 -15.2 88.7 -15.2 88.6 -15.3 88.6 -15.2 88.7
jtwc_sh bom reunion neumann
1997-01-31 12:00:00 -15.2 88.1 -15.2 87.9 -15.1 88.1 -15.2 88.1
1997-01-31 18:00:00 -15.2 87.5 -15.1 87.3 -15.1 87.6 -15.2 87.5
1997-02-01 00:00:00 -15.2 86.6 -15.0 86.7 -15.1 86.9 -15.2 86.6
1997-02-01 06:00:00 -15.1 86.0 -15.0 86.1 -15.0 86.3 -15.1 86.0
1997-02-01 12:00:00 -15.1 85.5 -15.2 85.5 -14.9 85.8 -15.1 85.5
1997-02-01 18:00:00 -15.4 85.1 -15.5 85.2 -15.3 85.5 -15.4 85.1
1997-02-02 00:00:00 -15.7 85.1 -15.7 84.9 -15.7 85.2 -15.7 85.1
1997-02-02 06:00:00 -16.0 85.2 -16.2 85.0 -16.2 85.0 -16.0 85.2
1997-02-02 12:00:00 -16.4 85.2 -16.8 85.3 -16.7 84.9 -16.4 85.2
1997-02-02 18:00:00 -16.8 85.3 -17.1 85.6 -17.1 85.0 -16.8 85.3
1997-02-03 00:00:00 -17.1 85.5 -17.4 85.8 -17.5 85.3 -17.1 85.5
1997-02-03 06:00:00 -17.3 85.8 -17.7 86.0 -17.7 85.8 -17.3 85.8
1997-02-03 12:00:00 -17.5 86.2 -17.8 86.2 -17.8 86.4 -17.5 86.2
1997-02-03 18:00:00 -17.6 86.6 -17.9 86.5 -17.9 86.9 -17.6 86.6
1997-02-04 00:00:00 -17.9 86.7 -18.1 86.9 -17.9 86.7 -17.9 86.7
1997-02-04 06:00:00 -18.4 86.7 -18.3 86.9 -18.2 86.4 -18.4 86.7
1997-02-04 12:00:00 -18.8 86.4 -18.5 86.5 -18.5 86.1 -18.8 86.4
1997-02-04 18:00:00 -19.3 86.1 -18.9 85.7 -18.9 85.8 -19.3 86.1
1997-02-05 00:00:00 -19.6 85.7 -19.2 84.7 -19.3 85.5 -19.6 85.7
1997-02-05 06:00:00 -20.0 85.2 -19.5 83.9 -19.7 84.9 -20.0 85.2
1997-02-05 12:00:00 -20.3 84.3 -19.9 83.3 -20.1 84.3 -20.3 84.3
1997-02-05 18:00:00 -20.5 83.4 -20.2 82.8 -20.5 83.3 -20.5 83.4
1997-02-06 00:00:00 -20.6 82.2 -20.4 82.1 -20.7 82.3 -20.6 82.2
1997-02-06 06:00:00 -20.6 80.9 -20.4 81.4 -20.7 81.5 -20.6 80.9
jtwc_sh bom reunion neumann
1997-02-06 12:00:00 -20.4 79.6 -20.2 80.3 -20.5 80.4 -20.4 79.6
1997-02-06 18:00:00 -20.1 78.3 -19.9 79.2 -20.2 79.0 -20.1 78.3
1997-02-07 00:00:00 -19.8 77.2 -19.4 77.8 -19.8 77.8 -19.8 77.2
1997-02-07 06:00:00 -19.4 76.1 -18.9 76.4 -19.2 77.0 -19.4 76.1
1997-02-07 12:00:00 -19.0 75.1 -19.0 75.1
1997-02-07 18:00:00 -18.7 74.1 -18.7 74.1
1997-02-08 00:00:00 -18.3 73.1 -18.3 73.1
1997-02-08 06:00:00 -17.7 71.9 -17.7 71.9
1997-02-08 12:00:00 -16.8 70.7 -16.8 70.7
1997-02-08 18:00:00 -16.2 69.3 -16.2 69.3
1997-02-09 00:00:00 -15.6 68.0 -15.6 68.0
1997-02-09 06:00:00 -15.0 66.8 -15.0 66.8
1997-02-09 12:00:00 -14.3 65.6 -14.3 65.6
1997-02-09 18:00:00 -13.6 64.4 -13.6 64.4
1997-02-10 00:00:00 -13.0 63.3 -13.0 63.3
1997-02-10 06:00:00 -12.8 62.1 -12.8 62.1
1997-02-10 12:00:00 -12.8 61.0 -12.8 61.0
1997-02-10 18:00:00 -12.8 60.1 -12.8 60.1
1997-02-11 00:00:00 -12.8 59.4 -12.8 59.4
1997-02-11 06:00:00 -12.9 58.7 -12.9 58.7
1997-02-11 12:00:00 -13.0 58.1 -13.0 58.1
1997-02-11 18:00:00 -13.1 57.6 -13.1 57.6
1997-02-12 00:00:00 -13.2 57.1 -13.2 57.1
1997-02-12 06:00:00 -13.4 56.6 -13.4 56.6
jtwc_sh bom reunion neumann
1997-02-12 12:00:00 -13.5 56.1 -13.5 56.1
1997-02-12 18:00:00 -13.7 55.7 -13.7 55.7
1997-02-13 00:00:00 -13.8 55.3 -13.8 55.3
1997-02-13 06:00:00 -13.9 55.0 -13.9 55.0
1997-02-13 12:00:00 -13.9 54.7 -13.9 54.7
1997-02-13 18:00:00 -13.9 54.5 -13.9 54.5
1997-02-14 00:00:00 -13.9 54.3 -13.9 54.3
1997-02-14 06:00:00 -13.9 54.1 -13.9 54.1
1997-02-14 12:00:00 -13.9 53.9 -13.9 53.9

top of pageTrack Data:Intensity

jtwc_sh bom reunion neumann
Date Wind Pres Wind Pres Wind Pres Wind Pres
1997-01-13 06:00:00 15. 15.
1997-01-13 12:00:00 15. 15.
1997-01-13 18:00:00 15. 15.
1997-01-14 00:00:00 15. 15.
1997-01-14 06:00:00 15. 15.
1997-01-14 12:00:00 15. 15.
1997-01-14 18:00:00 15. 15.
1997-01-15 00:00:00 15. 15.
1997-01-15 06:00:00 15. 15.
1997-01-15 12:00:00 20. 20.
1997-01-15 18:00:00 20. 20.
1997-01-16 00:00:00 20. 20.
1997-01-16 06:00:00 25. 25.
1997-01-16 12:00:00 25. 25.
1997-01-16 18:00:00 25. 25.
1997-01-17 00:00:00 25. 25.
1997-01-17 06:00:00 25. 25.
1997-01-17 12:00:00 25. 25.
1997-01-17 18:00:00 25. 25.
1997-01-18 00:00:00 25. 25.
1997-01-18 06:00:00 25. 1006. 25.
1997-01-18 12:00:00 25. 1006. 25.
1997-01-18 18:00:00 25. 1006. 25.
1997-01-19 00:00:00 25. 21. 1004. 25.
1997-01-19 06:00:00 25. 21. 1004. 25.
jtwc_sh bom reunion neumann
1997-01-19 12:00:00 30. 23. 1002. 30.
1997-01-19 18:00:00 30. 29. 998. 30.
1997-01-20 00:00:00 35. 35. 995. 35.
1997-01-20 06:00:00 45. 41. 990. 45.
1997-01-20 12:00:00 55. 54. 980. 55.
1997-01-20 18:00:00 65. 70. 965. 65.
1997-01-21 00:00:00 80. 93. 940. 80.
1997-01-21 06:00:00 95. 111. 915. 95.
1997-01-21 12:00:00 110. 111. 915. 110.
1997-01-21 18:00:00 115. 111. 915. 115.
1997-01-22 00:00:00 120. 107. 920. 120.
1997-01-22 06:00:00 125. 101. 930. 100. 915. 125.
1997-01-22 12:00:00 125. 93. 940. 100. 915. 125.
1997-01-22 18:00:00 125. 89. 945. 95. 925. 125.
1997-01-23 00:00:00 120. 93. 940. 85. 935. 120.
1997-01-23 06:00:00 120. 97. 935. 80. 945. 120.
1997-01-23 12:00:00 120. 89. 945. 75. 950. 120.
1997-01-23 18:00:00 110. 80. 955. 70. 955. 110.
1997-01-24 00:00:00 100. 66. 970. 65. 960. 100.
1997-01-24 06:00:00 95. 54. 980. 65. 960. 95.
1997-01-24 12:00:00 85. 47. 985. 60. 970. 85.
1997-01-24 18:00:00 70. 41. 990. 60. 970. 70.
1997-01-25 00:00:00 65. 41. 990. 60. 970. 65.
1997-01-25 06:00:00 65. 41. 990. 55. 975. 65.
jtwc_sh bom reunion neumann
1997-01-25 12:00:00 70. 41. 990. 55. 975. 70.
1997-01-25 18:00:00 75. 41. 990. 55. 975. 75.
1997-01-26 00:00:00 75. 41. 990. 60. 970. 75.
1997-01-26 06:00:00 75. 41. 990. 60. 970. 75.
1997-01-26 12:00:00 70. 35. 995. 60. 970. 70.
1997-01-26 18:00:00 65. 29. 998. 55. 975. 65.
1997-01-27 00:00:00 55. 29. 998. 45. 980. 55.
1997-01-27 06:00:00 55. 29. 998. 42. 985. 55.
1997-01-27 12:00:00 50. 29. 998. 35. 990. 50.
1997-01-27 18:00:00 50. 35. 995. 35. 990. 50.
1997-01-28 00:00:00 45. 41. 990. 35. 990. 45.
1997-01-28 06:00:00 45. 47. 985. 35. 990. 45.
1997-01-28 12:00:00 45. 47. 985. 35. 990. 45.
1997-01-28 18:00:00 45. 54. 980. 35. 990. 45.
1997-01-29 00:00:00 45. 60. 975. 35. 990. 45.
1997-01-29 06:00:00 45. 60. 975. 35. 990. 45.
1997-01-29 12:00:00 45. 60. 975. 35. 990. 45.
1997-01-29 18:00:00 45. 60. 975. 35. 990. 45.
1997-01-30 00:00:00 45. 60. 975. 35. 990. 45.
1997-01-30 06:00:00 45. 60. 975. 35. 990. 45.
1997-01-30 12:00:00 45. 66. 970. 35. 990. 45.
1997-01-30 18:00:00 45. 66. 970. 35. 990. 45.
1997-01-31 00:00:00 50. 70. 965. 40. 988. 50.
1997-01-31 06:00:00 55. 70. 965. 45. 980. 55.
jtwc_sh bom reunion neumann
1997-01-31 12:00:00 60. 76. 960. 52. 975. 60.
1997-01-31 18:00:00 65. 76. 960. 60. 970. 65.
1997-02-01 00:00:00 75. 84. 950. 70. 955. 75.
1997-02-01 06:00:00 90. 93. 940. 80. 945. 90.
1997-02-01 12:00:00 100. 93. 940. 80. 945. 100.
1997-02-01 18:00:00 110. 93. 940. 80. 945. 110.
1997-02-02 00:00:00 115. 93. 940. 70. 955. 115.
1997-02-02 06:00:00 115. 84. 950. 70. 955. 115.
1997-02-02 12:00:00 110. 80. 955. 65. 965. 110.
1997-02-02 18:00:00 105. 70. 965. 60. 970. 105.
1997-02-03 00:00:00 100. 70. 965. 52. 975. 100.
1997-02-03 06:00:00 95. 66. 970. 52. 975. 95.
1997-02-03 12:00:00 85. 54. 980. 45. 980. 85.
1997-02-03 18:00:00 75. 54. 980. 45. 980. 75.
1997-02-04 00:00:00 65. 41. 990. 45. 980. 65.
1997-02-04 06:00:00 55. 41. 990. 40. 988. 55.
1997-02-04 12:00:00 50. 41. 990. 30. 995. 50.
1997-02-04 18:00:00 45. 27. 1000. 30. 995. 45.
1997-02-05 00:00:00 40. 27. 1000. 30. 995. 40.
1997-02-05 06:00:00 35. 27. 1000. 25. 1000. 35.
1997-02-05 12:00:00 35. 27. 1000. 25. 1000. 35.
1997-02-05 18:00:00 35. 27. 1000. 25. 1002. 35.
1997-02-06 00:00:00 30. 27. 1000. 20. 1004. 30.
1997-02-06 06:00:00 30. 27. 1000. 20. 1004. 30.
jtwc_sh bom reunion neumann
1997-02-06 12:00:00 30. 27. 1000. 30.
1997-02-06 18:00:00 25. 27. 1000. 25.
1997-02-07 00:00:00 25. 27. 1000. 25.
1997-02-07 06:00:00 25. 27. 1000. 25.
1997-02-07 12:00:00 25. 25.
1997-02-07 18:00:00 25. 25.
1997-02-08 00:00:00 25. 25.
1997-02-08 06:00:00 25. 25.
1997-02-08 12:00:00 20. 20.
1997-02-08 18:00:00 20. 20.
1997-02-09 00:00:00 20. 20.
1997-02-09 06:00:00 20. 20.
1997-02-09 12:00:00 20. 20.
1997-02-09 18:00:00 20. 20.
1997-02-10 00:00:00 20. 20.
1997-02-10 06:00:00 20. 20.
1997-02-10 12:00:00 20. 20.
1997-02-10 18:00:00 20. 20.
1997-02-11 00:00:00 15. 15.
1997-02-11 06:00:00 15. 15.
1997-02-11 12:00:00 15. 15.
1997-02-11 18:00:00 15. 15.
1997-02-12 00:00:00 15. 15.
1997-02-12 06:00:00 15. 15.
jtwc_sh bom reunion neumann
1997-02-12 12:00:00 15. 15.
1997-02-12 18:00:00 15. 15.
1997-02-13 00:00:00 15. 15.
1997-02-13 06:00:00 15. 15.
1997-02-13 12:00:00 15. 15.
1997-02-13 18:00:00 15. 15.
1997-02-14 00:00:00 15. 15.
1997-02-14 06:00:00 15. 15.
1997-02-14 12:00:00 15. 15.

top of page Links to source data

Source Source file Format
jtwc_sh bsh191997.txt ATCF
bom Newcyclonedatabase-08repair.csv:Line=18154:PANCHO CSV file (from Excel file)
reunion WMO-Best-Tracks.txt:Line=17854:helinda WMO (old format)
neumann tracks.sh:Storm=1083:PANCHO/HELIN:DA:BSH191997 HURDAT